Agua de Oro, Argentina
Current Conditions -  °F | °C
As of 10:00 AM on Sunday 21 Dec 2014 (Local Time) from SACO Reporting Station
Scattered Clouds Scattered Clouds  
Wind Chill: 64°   Ceiling: Unl
Heat Index: 64°   Visibility: 6mi
Dew Point: 43°   Wind: 12mph
Humidity: 45%   Direction: 180°S
Pressure: 29.97"   Gusts: NA
Location:  31.07°S, 64.3°W
Report Text: SACO 211300Z 18010KT 9999 SCT030 18/06 Q1015
Loading
Personal Weather Stations






























Interactive Weather Map New forecast layout! Learn more

10-Day Weather Forecast

Advertisements
Track Severe Weather on mobile